Time;durP1;ratioP1;P1;durP2;ratioP2;P2;SDS_P1;SDS_P2;PMS_P1;PMS_P2;Temp;Humidity;BMP_temperature;BMP_pressure;BME280_temperature;BME280_humidity;BME280_pressure;Samples;Min_cycle;Max_cycle;Signal;HPM_P1;HPM_P2
2022/01/31 00:01:54;;;;;;;19.92;5.55;;;;;;;4.72;72.89;101517.38;5013462;28;20050;-60
2022/01/31 00:04:19;;;;;;;23.08;6.28;;;;;;;4.73;73.50;101498.19;5013387;28;20060;-61
2022/01/31 00:06:48;;;;;;;26.02;4.95;;;;;;;4.68;73.87;101474.44;5013718;28;20101;-61
2022/01/31 00:09:16;;;;;;;21.38;5.50;;;;;;;4.67;73.78;101451.72;5013299;28;20026;-61
2022/01/31 00:11:45;;;;;;;19.27;5.50;;;;;;;4.66;74.29;101441.16;5013338;28;20080;-60
2022/01/31 00:14:21;;;;;;;18.02;6.00;;;;;;;4.63;74.50;101441.03;5013357;28;20064;-60
2022/01/31 00:16:47;;;;;;;15.85;5.13;;;;;;;4.69;73.47;101430.81;5012726;28;20217;-61
2022/01/31 00:19:12;;;;;;;19.48;5.57;;;;;;;4.64;74.98;101427.13;5013257;28;20220;-61
2022/01/31 00:21:37;;;;;;;22.42;5.45;;;;;;;4.64;74.14;101425.41;5013504;28;20480;-60
2022/01/31 00:24:03;;;;;;;22.75;5.63;;;;;;;4.66;74.07;101413.25;5013261;28;20029;-60
2022/01/31 00:26:28;;;;;;;17.67;5.45;;;;;;;4.66;74.83;101413.25;5013195;28;20102;-60
2022/01/31 00:28:55;;;;;;;15.80;5.43;;;;;;;4.71;74.33;101389.91;5013158;28;20068;-60
2022/01/31 00:31:20;;;;;;;17.20;5.60;;;;;;;4.71;75.16;101393.44;5012980;28;20018;-60
2022/01/31 00:33:45;;;;;;;18.33;5.63;;;;;;;4.74;75.31;101356.00;5012953;28;20033;-61
2022/01/31 00:36:11;;;;;;;25.55;5.60;;;;;;;4.75;74.62;101356.09;4975501;28;1090318;-60
2022/01/31 00:38:36;;;;;;;18.77;4.97;;;;;;;4.78;75.15;101343.09;5013999;28;20207;-60
2022/01/31 00:41:03;;;;;;;19.83;5.30;;;;;;;4.74;75.88;101327.19;5013573;28;20037;-60
2022/01/31 00:43:28;;;;;;;19.98;5.55;;;;;;;4.74;75.74;101325.47;5013978;28;20033;-60
2022/01/31 00:46:02;;;;;;;19.27;4.93;;;;;;;4.76;76.19;101309.84;5013641;28;20105;-60
2022/01/31 00:48:30;;;;;;;22.15;5.03;;;;;;;4.75;77.35;101288.03;5013522;28;20159;-60
2022/01/31 00:50:55;;;;;;;27.33;5.50;;;;;;;4.69;77.22;101287.75;5013434;28;20048;-60
2022/01/31 00:53:21;;;;;;;20.40;5.07;;;;;;;4.71;78.61;101275.63;5013736;28;20022;-60
2022/01/31 00:55:46;;;;;;;16.15;4.57;;;;;;;4.72;78.77;101255.59;5013491;28;20033;-60
2022/01/31 00:58:11;;;;;;;16.30;4.72;;;;;;;4.67;79.57;101249.28;5013620;28;20033;-60
2022/01/31 01:00:37;;;;;;;17.92;5.00;;;;;;;4.63;80.32;101252.59;5013427;28;20383;-60
2022/01/31 01:03:04;;;;;;;14.68;5.10;;;;;;;4.60;80.45;101250.72;5013331;28;20088;-61
2022/01/31 01:05:29;;;;;;;22.23;5.07;;;;;;;4.56;80.67;101217.41;5013353;28;20037;-60
2022/01/31 01:07:55;;;;;;;19.80;5.50;;;;;;;4.50;82.23;101215.44;5013442;28;20026;-61
2022/01/31 01:10:20;;;;;;;21.00;5.78;;;;;;;4.49;82.26;101204.91;5013474;28;20109;-60
2022/01/31 01:12:47;;;;;;;22.27;5.68;;;;;;;4.48;82.09;101200.50;5013283;28;20383;-61
2022/01/31 01:15:13;;;;;;;18.90;5.78;;;;;;;4.49;82.27;101197.03;5013450;28;20029;-60
2022/01/31 01:17:38;;;;;;;20.80;4.93;;;;;;;4.48;83.56;101190.91;5013384;28;20030;-60
2022/01/31 01:20:05;;;;;;;25.02;6.03;;;;;;;4.44;84.36;101182.88;5013597;28;20036;-61
2022/01/31 01:22:31;;;;;;;20.90;5.18;;;;;;;4.43;84.96;101165.41;5013160;28;20021;-61
2022/01/31 01:24:57;;;;;;;16.42;4.78;;;;;;;4.42;84.72;101171.47;5013086;28;20097;-61
2022/01/31 01:27:23;;;;;;;18.67;5.65;;;;;;;4.41;86.05;101162.75;5013214;28;20053;-61
2022/01/31 01:29:48;;;;;;;17.05;5.60;;;;;;;4.43;85.75;101134.91;5015387;28;20026;-61
2022/01/31 01:32:14;;;;;;;21.75;5.32;;;;;;;4.41;86.74;101130.44;5017061;28;20104;-62
2022/01/31 01:34:39;;;;;;;19.05;5.13;;;;;;;4.44;86.25;101120.97;5017057;28;20036;-62
2022/01/31 01:37:05;;;;;;;21.58;5.35;;;;;;;4.44;86.13;101120.97;5016931;28;20380;-62
2022/01/31 01:39:31;;;;;;;19.17;5.93;;;;;;;4.43;86.86;101111.34;5016992;28;20048;-61
2022/01/31 01:41:59;;;;;;;17.10;5.05;;;;;;;4.47;86.38;101101.91;5016958;28;20088;-62
2022/01/31 01:44:46;;;;;;;14.55;4.47;;;;;;;4.52;85.95;101088.16;5017153;28;20056;-62
2022/01/31 01:47:21;;;;;;;11.63;4.53;;;;;;;4.53;86.28;101074.25;4999111;28;20048;-62
2022/01/31 01:49:48;;;;;;;15.38;4.85;;;;;;;4.56;86.93;101086.56;5017086;28;20026;-62
2022/01/31 01:52:15;;;;;;;16.58;5.05;;;;;;;4.54;88.08;101059.47;5016663;28;20032;-62
2022/01/31 01:54:41;;;;;;;19.02;5.20;;;;;;;4.57;87.79;101051.69;5016758;28;20463;-62
2022/01/31 01:57:06;;;;;;;13.80;4.70;;;;;;;4.62;87.44;101039.69;5016781;28;20061;-62
2022/01/31 01:59:34;;;;;;;19.75;5.13;;;;;;;4.65;86.68;101024.09;5016710;28;20037;-62
2022/01/31 02:02:03;;;;;;;14.95;4.97;;;;;;;4.65;87.92;101016.25;5016469;28;20037;-63
2022/01/31 02:04:29;;;;;;;15.45;4.75;;;;;;;4.68;87.78;101003.28;5016867;28;20057;-62
2022/01/31 02:06:54;;;;;;;18.70;4.68;;;;;;;4.69;87.12;101006.78;5016739;28;20399;-62
2022/01/31 02:09:25;;;;;;;11.68;4.55;;;;;;;4.72;87.34;100992.09;5016377;28;20034;-62
2022/01/31 02:11:54;;;;;;;11.98;4.55;;;;;;;4.72;87.73;100993.81;5016391;28;20040;-62
2022/01/31 02:14:20;;;;;;;13.10;4.03;;;;;;;4.78;87.56;100994.91;5016362;28;20030;-62
2022/01/31 02:16:49;;;;;;;12.32;4.40;;;;;;;4.77;88.07;100985.28;5016521;28;20383;-62
2022/01/31 02:19:16;;;;;;;14.65;4.28;;;;;;;4.82;87.65;100969.75;5016473;28;20077;-62
2022/01/31 02:21:43;;;;;;;13.63;4.43;;;;;;;4.84;87.15;100965.47;5016409;28;20029;-62
2022/01/31 02:24:08;;;;;;;15.20;4.43;;;;;;;4.85;87.95;100962.00;5016418;28;20042;-62
2022/01/31 02:26:33;;;;;;;13.40;4.05;;;;;;;4.92;87.34;100957.88;5016263;28;20175;-62
2022/01/31 02:28:59;;;;;;;15.95;4.82;;;;;;;4.90;87.85;100952.59;5016084;28;20034;-62
2022/01/31 02:31:24;;;;;;;12.98;4.25;;;;;;;4.96;88.00;100965.00;5016154;28;20038;-62
2022/01/31 02:33:49;;;;;;;16.45;4.30;;;;;;;4.96;87.86;100957.13;5016113;28;20030;-62
2022/01/31 02:36:15;;;;;;;14.27;4.03;;;;;;;5.00;88.08;100979.97;5015894;28;20401;-62
2022/01/31 02:38:40;;;;;;;12.60;4.80;;;;;;;5.01;88.55;100956.47;5016064;28;20092;-62
2022/01/31 02:41:06;;;;;;;12.05;4.65;;;;;;;5.05;88.55;100959.19;5015417;28;20071;-62
2022/01/31 02:43:33;;;;;;;12.05;4.18;;;;;;;5.07;88.23;100952.28;5015819;28;20361;-63
2022/01/31 02:46:00;;;;;;;11.35;4.15;;;;;;;5.12;88.71;100951.59;5015711;28;20455;-63
2022/01/31 02:48:28;;;;;;;10.43;4.55;;;;;;;5.12;89.38;100951.59;5015785;28;20088;-62
2022/01/31 02:50:53;;;;;;;12.30;4.68;;;;;;;5.15;89.00;100941.25;5015830;28;20084;-62
2022/01/31 02:53:32;;;;;;;14.80;5.28;;;;;;;5.16;89.17;100937.78;5015660;28;20030;-62
2022/01/31 02:56:00;;;;;;;9.10;4.30;;;;;;;5.18;88.78;100916.84;5015552;28;20037;-62
2022/01/31 02:58:27;;;;;;;11.90;4.57;;;;;;;5.23;88.84;100916.19;5015665;28;20080;-62
2022/01/31 03:00:54;;;;;;;8.20;4.50;;;;;;;5.27;89.04;100911.94;5015614;28;20037;-62
2022/01/31 03:03:20;;;;;;;10.73;4.63;;;;;;;5.32;88.20;100893.75;5015609;28;20029;-63
2022/01/31 03:05:45;;;;;;;8.38;4.45;;;;;;;5.34;88.93;100897.31;5015500;28;20033;-62
2022/01/31 03:08:10;;;;;;;7.45;4.30;;;;;;;5.37;89.36;100897.41;5015424;28;20050;-62
2022/01/31 03:10:36;;;;;;;10.25;3.95;;;;;;;5.41;89.55;100905.44;5015273;28;20050;-63
2022/01/31 03:13:02;;;;;;;9.43;4.35;;;;;;;5.47;89.44;100902.09;5015246;28;20030;-62
2022/01/31 03:15:28;;;;;;;13.30;4.53;;;;;;;5.53;89.38;100886.59;5015105;28;20033;-62
2022/01/31 03:17:53;;;;;;;10.55;4.45;;;;;;;5.57;89.33;100882.31;5015231;28;20048;-62
2022/01/31 03:20:20;;;;;;;12.60;4.50;;;;;;;5.60;89.49;100875.44;5015416;28;20033;-62
2022/01/31 03:22:47;;;;;;;16.58;4.60;;;;;;;5.64;89.57;100868.56;5015211;28;20033;-62
2022/01/31 03:25:13;;;;;;;12.25;4.22;;;;;;;5.68;90.11;100880.94;5015054;28;20018;-62
2022/01/31 03:27:39;;;;;;;16.55;3.90;;;;;;;5.70;89.78;100874.91;5015030;28;20403;-62
2022/01/31 03:30:06;;;;;;;16.20;4.32;;;;;;;5.74;89.81;100881.13;5014875;28;20045;-62
2022/01/31 03:32:31;;;;;;;11.85;3.65;;;;;;;5.78;89.44;100872.47;5015120;28;20383;-63
2022/01/31 03:34:57;;;;;;;13.18;3.70;;;;;;;5.83;89.03;100863.06;5015133;28;20041;-62
2022/01/31 03:37:23;;;;;;;12.98;3.38;;;;;;;5.91;88.51;100866.81;5014534;28;20053;-62
2022/01/31 03:39:48;;;;;;;16.27;3.88;;;;;;;5.93;88.60;100861.63;5014776;28;20034;-62
2022/01/31 03:42:18;;;;;;;13.10;3.45;;;;;;;5.96;88.22;100859.09;5014773;28;20525;-62
2022/01/31 03:44:44;;;;;;;15.10;3.45;;;;;;;6.00;88.06;100853.97;5014482;28;20058;-63
2022/01/31 03:47:09;;;;;;;18.80;3.60;;;;;;;6.03;88.12;100847.91;5015054;28;20021;-62
2022/01/31 03:49:35;;;;;;;18.48;3.72;;;;;;;6.06;87.76;100850.63;5014698;28;20499;-62
2022/01/31 03:52:00;;;;;;;13.90;3.30;;;;;;;6.10;87.43;100851.63;5013796;28;20463;-62
2022/01/31 03:54:25;;;;;;;21.48;3.85;;;;;;;6.11;87.77;100835.91;5014380;28;20498;-62
2022/01/31 03:56:51;;;;;;;15.73;3.47;;;;;;;6.13;87.18;100844.72;5014560;28;20057;-62
2022/01/31 03:59:16;;;;;;;14.48;2.95;;;;;;;6.13;87.25;100846.47;5014707;28;20030;-62
2022/01/31 04:01:41;;;;;;;24.30;3.65;;;;;;;6.13;86.52;100839.50;5014308;28;20025;-62
2022/01/31 04:04:10;;;;;;;13.38;3.10;;;;;;;6.19;86.50;100844.91;5014430;28;20345;-62
2022/01/31 04:06:39;;;;;;;19.52;3.17;;;;;;;6.23;85.61;100841.50;5014383;28;20148;-62
2022/01/31 04:09:05;;;;;;;12.70;3.08;;;;;;;6.26;85.70;100843.34;5014191;28;20022;-62
2022/01/31 04:11:30;;;;;;;17.17;3.90;;;;;;;6.30;85.49;100828.59;5014050;28;20108;-63
2022/01/31 04:13:56;;;;;;;13.57;3.10;;;;;;;6.30;84.69;100824.22;5014196;28;20018;-62
2022/01/31 04:16:22;;;;;;;12.73;2.55;;;;;;;6.33;84.63;100826.03;5013987;28;20030;-62
2022/01/31 04:18:47;;;;;;;15.77;3.47;;;;;;;6.33;84.13;100829.53;5014430;28;20037;-62
2022/01/31 04:21:13;;;;;;;11.73;2.67;;;;;;;6.33;83.94;100834.78;5014138;28;20038;-62
2022/01/31 04:23:39;;;;;;;10.57;2.50;;;;;;;6.36;84.54;100831.38;5014071;28;20108;-62
2022/01/31 04:26:11;;;;;;;13.00;2.72;;;;;;;6.39;84.15;100834.09;5013932;28;20061;-62
2022/01/31 04:28:45;;;;;;;16.00;2.88;;;;;;;6.41;82.82;100824.50;5014034;28;20037;-62
2022/01/31 04:33:37;;;;;;;11.95;2.55;;;;;;;6.44;81.99;100806.22;5014122;28;20053;-62
2022/01/31 04:36:03;;;;;;;11.60;2.78;;;;;;;6.48;81.33;100811.59;5013443;28;20073;-62
2022/01/31 04:38:28;;;;;;;18.15;2.90;;;;;;;6.50;81.07;100814.25;5013561;28;20423;-62
2022/01/31 04:40:54;;;;;;;11.27;2.83;;;;;;;6.52;80.93;100810.81;5013704;28;20033;-63
2022/01/31 04:43:19;;;;;;;18.23;2.75;;;;;;;6.53;80.41;100811.72;5013712;28;20493;-62
2022/01/31 04:45:48;;;;;;;21.35;3.30;;;;;;;6.52;79.17;100807.31;5013423;28;20025;-62
2022/01/31 04:48:18;;;;;;;16.20;2.60;;;;;;;6.53;80.16;100812.59;5013704;28;20037;-62
2022/01/31 04:50:45;;;;;;;11.52;2.40;;;;;;;6.53;79.01;100816.97;5013587;28;20049;-62
2022/01/31 04:53:11;;;;;;;14.02;2.67;;;;;;;6.49;78.95;100821.22;5013754;28;20113;-62
2022/01/31 04:55:37;;;;;;;10.85;2.80;;;;;;;6.50;78.42;100819.50;5013375;28;20449;-62
2022/01/31 04:58:04;;;;;;;18.67;3.35;;;;;;;6.50;78.39;100822.13;5013544;28;20105;-62
2022/01/31 05:00:30;;;;;;;11.57;2.65;;;;;;;6.49;77.97;100823.84;5013546;28;20028;-62
2022/01/31 05:02:55;;;;;;;12.93;2.40;;;;;;;6.49;77.97;100800.22;5013395;28;20033;-62
2022/01/31 05:05:20;;;;;;;14.57;2.80;;;;;;;6.48;77.57;100793.22;5013514;28;20022;-62
2022/01/31 05:07:46;;;;;;;14.00;2.60;;;;;;;6.46;77.48;100812.38;5013440;28;20026;-62
2022/01/31 05:10:11;;;;;;;22.50;3.30;;;;;;;6.47;76.77;100804.56;5013264;28;20041;-62
2022/01/31 05:12:37;;;;;;;11.82;2.60;;;;;;;6.48;76.37;100790.59;5013461;28;20038;-62
2022/01/31 05:15:04;;;;;;;15.63;3.38;;;;;;;6.50;77.00;100788.88;5013077;28;20037;-62
2022/01/31 05:17:29;;;;;;;11.90;2.35;;;;;;;6.52;76.73;100786.31;5013163;28;20134;-62
2022/01/31 05:19:54;;;;;;;9.95;3.03;;;;;;;6.53;76.34;100794.22;5013209;28;20467;-63
2022/01/31 05:22:20;;;;;;;17.88;2.60;;;;;;;6.50;75.78;100788.00;5013365;28;20026;-62
2022/01/31 05:24:45;;;;;;;15.18;2.55;;;;;;;6.52;75.89;100783.69;5013141;28;20026;-62
2022/01/31 05:27:10;;;;;;;16.02;2.90;;;;;;;6.56;75.41;100769.78;5013200;28;20075;-62
2022/01/31 05:29:36;;;;;;;15.75;2.80;;;;;;;6.59;74.77;100768.97;5013208;28;20120;-62
2022/01/31 05:32:01;;;;;;;14.82;2.55;;;;;;;6.55;74.85;100783.75;5012933;28;20026;-62
2022/01/31 05:34:27;;;;;;;16.05;3.00;;;;;;;6.55;75.46;100753.97;5013373;28;20566;-61
2022/01/31 05:36:55;;;;;;;15.60;2.70;;;;;;;6.55;74.56;100754.88;5013200;28;20499;-61
2022/01/31 05:39:25;;;;;;;15.52;2.92;;;;;;;6.55;74.81;100743.47;5013281;28;20105;-62
2022/01/31 05:41:51;;;;;;;14.95;2.40;;;;;;;6.55;74.84;100747.00;5013333;28;20034;-62
2022/01/31 05:44:17;;;;;;;15.65;2.63;;;;;;;6.56;75.44;100732.16;5013089;28;20106;-62
2022/01/31 05:46:42;;;;;;;14.82;2.88;;;;;;;6.58;75.67;100733.06;5012824;28;20033;-62
2022/01/31 05:49:08;;;;;;;9.50;2.50;;;;;;;6.59;75.54;100735.72;5012980;28;20026;-62
2022/01/31 05:51:38;;;;;;;17.67;2.38;;;;;;;6.57;75.08;100740.06;5013000;28;20034;-62
2022/01/31 05:54:03;;;;;;;17.52;3.15;;;;;;;6.53;76.29;100744.34;5012984;28;20058;-61
2022/01/31 05:56:28;;;;;;;14.95;2.55;;;;;;;6.47;78.02;100759.06;5012779;28;20061;-62
2022/01/31 05:58:54;;;;;;;13.50;2.63;;;;;;;6.40;78.15;100765.88;5012910;28;20034;-62
2022/01/31 06:01:19;;;;;;;15.77;3.83;;;;;;;6.24;78.58;100780.31;5013000;28;20039;-62
2022/01/31 06:03:44;;;;;;;12.18;2.78;;;;;;;6.02;80.34;100797.19;5012966;28;20435;-62
2022/01/31 06:06:10;;;;;;;10.40;2.33;;;;;;;5.68;82.04;100794.41;5012919;28;20058;-62
2022/01/31 06:08:35;;;;;;;8.30;2.08;;;;;;;5.45;82.00;100778.00;5012883;28;20073;-62
2022/01/31 06:11:01;;;;;;;8.43;2.20;;;;;;;5.42;82.73;100773.56;5012855;28;20030;-62
2022/01/31 06:13:30;;;;;;;9.65;2.40;;;;;;;5.42;83.05;100789.28;5012842;28;20049;-62
2022/01/31 06:15:55;;;;;;;10.48;2.53;;;;;;;5.46;83.71;100783.28;5015043;28;20026;-63
2022/01/31 06:18:20;;;;;;;10.00;2.42;;;;;;;5.49;84.78;100780.78;5016362;28;20026;-62
2022/01/31 06:20:46;;;;;;;9.63;2.30;;;;;;;5.52;83.53;100785.19;5016406;28;20088;-63
2022/01/31 06:23:12;;;;;;;11.38;2.47;;;;;;;5.57;83.16;100772.22;5016312;28;20064;-62
2022/01/31 06:25:37;;;;;;;10.43;2.60;;;;;;;5.57;83.08;100762.66;5016169;28;20022;-62
2022/01/31 06:28:04;;;;;;;14.65;2.63;;;;;;;5.61;82.68;100772.41;5016180;28;20025;-62
2022/01/31 06:30:30;;;;;;;12.35;2.67;;;;;;;5.58;82.98;100772.28;5016117;28;20030;-62
2022/01/31 06:32:55;;;;;;;13.32;2.72;;;;;;;5.60;83.26;100760.09;5015939;28;20087;-63
2022/01/31 06:35:21;;;;;;;15.27;2.90;;;;;;;5.63;82.80;100759.31;5016041;28;20101;-62
2022/01/31 06:37:46;;;;;;;13.85;2.75;;;;;;;5.69;82.19;100776.09;5015714;28;20417;-62
2022/01/31 06:40:12;;;;;;;9.80;2.53;;;;;;;5.75;82.02;100765.81;5015815;28;20386;-62
2022/01/31 06:42:37;;;;;;;14.65;2.75;;;;;;;5.82;82.08;100771.22;5015909;28;20026;-62
2022/01/31 06:45:04;;;;;;;11.82;2.30;;;;;;;5.81;81.17;100756.34;5015779;28;20487;-62
2022/01/31 06:47:29;;;;;;;12.00;2.30;;;;;;;5.82;81.27;100765.97;5015841;28;20040;-63
2022/01/31 06:49:56;;;;;;;15.90;2.95;;;;;;;5.84;80.97;100764.31;5015922;28;20105;-62
2022/01/31 06:52:22;;;;;;;13.57;2.70;;;;;;;5.85;81.29;100766.94;5015633;28;20022;-62
2022/01/31 06:54:50;;;;;;;13.57;2.78;;;;;;;5.84;81.63;100761.69;5015570;28;20699;-62
2022/01/31 06:57:18;;;;;;;14.25;3.00;;;;;;;5.83;81.32;100763.41;5015693;28;20033;-62
2022/01/31 06:59:43;;;;;;;13.73;2.80;;;;;;;5.83;80.51;100755.53;5015537;28;20037;-62
2022/01/31 07:02:08;;;;;;;17.85;3.08;;;;;;;5.82;81.31;100761.59;5015453;28;20022;-62
2022/01/31 07:04:34;;;;;;;16.65;3.05;;;;;;;5.84;80.98;100767.81;5015552;28;20021;-62
2022/01/31 07:06:59;;;;;;;12.45;2.75;;;;;;;5.89;80.55;100773.19;5015698;28;20029;-63
2022/01/31 07:09:25;;;;;;;15.85;3.00;;;;;;;5.89;80.17;100760.94;5015369;28;20022;-62
2022/01/31 07:11:52;;;;;;;13.27;2.53;;;;;;;5.87;80.48;100767.00;5015353;28;20026;-62
2022/01/31 07:14:30;;;;;;;17.83;3.05;;;;;;;5.86;80.95;100758.22;5015299;28;20553;-62
2022/01/31 07:16:56;;;;;;;11.95;3.08;;;;;;;5.88;80.01;100743.44;4997642;28;20100;-62
2022/01/31 07:19:22;;;;;;;19.15;3.40;;;;;;;5.91;80.29;100753.13;5015444;28;20025;-62
2022/01/31 07:21:50;;;;;;;16.88;3.13;;;;;;;5.89;80.51;100750.47;5015364;28;20037;-62
2022/01/31 07:24:23;;;;;;;15.50;2.90;;;;;;;5.86;80.50;100754.72;5015151;28;20049;-62
2022/01/31 07:26:50;;;;;;;15.55;2.70;;;;;;;5.87;80.69;100756.53;5013797;28;20037;-62
2022/01/31 07:29:17;;;;;;;15.73;3.45;;;;;;;5.87;80.49;100753.91;5014948;28;20122;-62
2022/01/31 07:31:44;;;;;;;15.10;3.28;;;;;;;5.84;80.27;100761.69;5014832;28;20456;-62
2022/01/31 07:34:12;;;;;;;14.65;2.72;;;;;;;5.83;80.86;100771.28;5014948;28;20056;-62
2022/01/31 07:36:38;;;;;;;19.63;3.88;;;;;;;5.81;80.92;100786.06;5014879;28;20026;-62
2022/01/31 07:39:04;;;;;;;23.30;3.67;;;;;;;5.75;81.56;100794.66;5014804;28;20403;-62
2022/01/31 07:41:30;;;;;;;18.35;3.60;;;;;;;5.67;82.02;100790.03;5014635;28;20084;-62
2022/01/31 07:43:55;;;;;;;15.43;3.38;;;;;;;5.64;83.03;100796.06;5014750;28;20026;-62
2022/01/31 07:46:21;;;;;;;16.90;3.75;;;;;;;5.63;82.72;100794.28;5014485;28;20105;-62
2022/01/31 07:48:48;;;;;;;20.67;3.30;;;;;;;5.58;83.33;100779.28;5014735;28;20034;-62
2022/01/31 07:51:16;;;;;;;19.15;2.75;;;;;;;5.55;82.91;100789.66;5014576;28;20079;-62
2022/01/31 07:53:41;;;;;;;15.18;2.92;;;;;;;5.57;82.99;100777.47;5014622;28;20029;-62
2022/01/31 07:56:10;;;;;;;15.88;2.95;;;;;;;5.58;82.87;100780.16;5014401;28;20110;-62
2022/01/31 07:58:37;;;;;;;17.85;3.13;;;;;;;5.60;83.07;100786.31;5014570;28;20143;-62
2022/01/31 08:01:04;;;;;;;22.20;3.10;;;;;;;5.65;82.40;100778.59;5014243;28;20108;-62
2022/01/31 08:03:30;;;;;;;26.40;3.83;;;;;;;5.69;81.71;100783.06;5014472;28;20137;-62
2022/01/31 08:05:56;;;;;;;22.48;3.80;;;;;;;5.67;82.37;100785.66;5014410;28;20399;-62
2022/01/31 08:08:21;;;;;;;21.17;3.83;;;;;;;5.67;81.77;100782.16;5014333;28;20022;-62
2022/01/31 08:10:47;;;;;;;16.52;3.20;;;;;;;5.71;81.17;100779.66;5014219;28;20030;-62
2022/01/31 08:13:13;;;;;;;21.40;3.53;;;;;;;5.77;81.77;100769.34;4996528;28;20426;-62
2022/01/31 08:15:47;;;;;;;19.63;3.58;;;;;;;5.78;81.67;100788.59;5014060;28;20091;-63
2022/01/31 08:18:13;;;;;;;15.85;3.78;;;;;;;5.81;81.20;100774.69;5014231;28;20080;-62
2022/01/31 08:20:38;;;;;;;12.93;2.78;;;;;;;5.88;81.29;100789.75;5014152;28;20057;-62
2022/01/31 08:23:04;;;;;;;21.60;3.50;;;;;;;5.90;81.49;100802.06;5014107;28;20472;-63
2022/01/31 08:25:35;;;;;;;23.27;3.80;;;;;;;5.90;81.06;100799.44;5013908;28;20079;-62
2022/01/31 08:28:06;;;;;;;21.27;4.05;;;;;;;5.84;81.38;100796.66;5014070;28;20089;-62
2022/01/31 08:30:38;;;;;;;17.48;3.20;;;;;;;5.77;81.28;100779.84;5013897;28;20053;-62
2022/01/31 08:33:13;;;;;;;16.67;3.28;;;;;;;5.75;81.81;100797.28;5013828;28;20026;-62
2022/01/31 08:35:48;;;;;;;18.40;3.90;;;;;;;5.78;81.64;100797.38;5013933;28;20037;-62
2022/01/31 08:38:15;;;;;;;27.33;3.20;;;;;;;5.78;81.44;100804.31;5013411;28;20048;-62
2022/01/31 08:40:42;;;;;;;26.38;4.03;;;;;;;5.77;81.98;100811.28;4996102;28;20033;-62
2022/01/31 08:43:08;;;;;;;21.55;3.15;;;;;;;5.78;82.53;100822.66;5013606;28;20034;-62
2022/01/31 08:45:35;;;;;;;20.05;3.72;;;;;;;5.78;82.77;100820.03;5013783;28;20165;-62
2022/01/31 08:48:01;;;;;;;25.30;3.70;;;;;;;5.77;82.45;100806.06;5013788;28;20557;-62
2022/01/31 08:50:26;;;;;;;27.52;3.70;;;;;;;5.80;82.71;100800.03;5013574;28;20084;-62
2022/01/31 08:52:52;;;;;;;13.43;3.28;;;;;;;5.80;81.98;100807.00;5013531;28;20112;-62
2022/01/31 08:55:20;;;;;;;19.77;4.00;;;;;;;5.77;81.47;100805.16;5013451;28;20472;-62
2022/01/31 08:57:47;;;;;;;24.35;4.35;;;;;;;5.76;81.91;100814.78;5013247;28;20405;-63
2022/01/31 09:00:13;;;;;;;22.13;3.97;;;;;;;5.77;80.55;100800.81;5013403;28;20030;-62
2022/01/31 09:02:49;;;;;;;17.42;3.88;;;;;;;5.78;81.18;100836.69;5013560;28;20037;-62
2022/01/31 09:05:14;;;;;;;21.90;3.42;;;;;;;5.77;81.72;100813.91;5013460;28;20032;-62
2022/01/31 09:07:40;;;;;;;20.98;3.15;;;;;;;5.80;81.62;100815.75;5013659;28;20093;-62
2022/01/31 09:10:05;;;;;;;20.02;3.33;;;;;;;5.79;81.02;100811.38;5013335;28;20030;-62
2022/01/31 09:12:33;;;;;;;17.13;2.75;;;;;;;5.76;82.06;100830.50;5013234;28;20451;-62
2022/01/31 09:14:59;;;;;;;18.92;3.67;;;;;;;5.75;82.70;100831.34;5013262;28;20036;-62
2022/01/31 09:17:24;;;;;;;25.13;3.72;;;;;;;5.77;82.96;100826.16;5013252;28;20438;-62
2022/01/31 09:19:50;;;;;;;21.23;3.55;;;;;;;5.72;82.89;100823.38;5013309;28;20022;-62
2022/01/31 09:22:15;;;;;;;24.40;3.25;;;;;;;5.74;82.11;100826.97;5013345;28;20053;-62
2022/01/31 09:24:41;;;;;;;21.48;3.90;;;;;;;5.75;82.22;100813.00;5013238;28;20026;-62
2022/01/31 09:27:08;;;;;;;16.75;3.10;;;;;;;5.76;82.76;100827.88;5013140;28;20034;-62
2022/01/31 09:29:34;;;;;;;20.90;3.88;;;;;;;5.74;82.03;100821.72;5013461;28;20026;-62
2022/01/31 09:32:03;;;;;;;23.98;3.50;;;;;;;5.76;82.07;100816.50;5013038;28;20029;-62
2022/01/31 09:34:30;;;;;;;20.83;3.88;;;;;;;5.77;82.00;100828.75;5013172;28;20078;-62
2022/01/31 09:36:56;;;;;;;22.15;3.88;;;;;;;5.79;82.26;100816.59;5013118;28;20022;-62
2022/01/31 09:39:22;;;;;;;22.23;4.05;;;;;;;5.85;82.33;100806.28;5012889;28;20042;-62
2022/01/31 09:41:53;;;;;;;20.90;3.42;;;;;;;5.85;81.65;100858.72;5012934;28;20084;-62
2022/01/31 09:44:43;;;;;;;26.27;4.15;;;;;;;5.85;80.27;100860.47;4995462;28;20116;-63
2022/01/31 09:49:47;;;;;;;27.65;4.40;;;;;;;5.83;81.63;100864.78;5013627;28;20497;-62
2022/01/31 09:52:13;;;;;;;22.55;5.10;;;;;;;5.84;81.64;100856.97;5016746;28;20026;-63
2022/01/31 09:54:38;;;;;;;22.48;4.53;;;;;;;5.83;81.10;100864.78;5016592;28;20050;-63
2022/01/31 09:57:04;;;;;;;21.95;3.78;;;;;;;5.77;81.62;100874.22;5016942;28;20034;-62
2022/01/31 09:59:30;;;;;;;25.08;4.32;;;;;;;5.78;82.16;100898.72;5016701;28;20030;-62
2022/01/31 10:01:57;;;;;;;29.08;4.57;;;;;;;5.72;82.78;100912.53;5016849;28;20109;-62
2022/01/31 10:04:25;;;;;;;19.20;3.72;;;;;;;5.69;82.95;100896.69;5016840;28;20080;-62
2022/01/31 10:06:53;;;;;;;25.90;4.53;;;;;;;5.66;82.15;100914.97;5016579;28;20032;-62
2022/01/31 10:09:21;;;;;;;26.10;4.32;;;;;;;5.58;83.22;100916.44;5016412;28;20045;-62
2022/01/31 10:11:57;;;;;;;23.85;4.10;;;;;;;5.57;83.31;100891.09;5016522;28;20034;-62
2022/01/31 10:17:31;;;;;;;29.92;4.70;;;;;;;5.61;82.70;100911.31;5016533;28;20110;-62
2022/01/31 10:20:00;;;;;;;35.83;4.60;;;;;;;5.68;82.64;100899.28;5016405;28;20045;-62
2022/01/31 10:22:28;;;;;;;34.50;5.70;;;;;;;5.74;81.57;100907.34;5016395;28;20033;-63
2022/01/31 10:24:57;;;;;;;34.13;5.63;;;;;;;5.80;81.21;100911.88;5016187;28;20030;-62
2022/01/31 10:27:27;;;;;;;36.05;5.45;;;;;;;5.80;81.46;100918.00;5016310;28;20022;-62
2022/01/31 10:29:54;;;;;;;31.23;5.82;;;;;;;5.83;80.77;100948.69;5016167;28;20047;-62
2022/01/31 10:32:34;;;;;;;35.58;5.07;;;;;;;5.85;80.35;100950.50;5015826;28;20527;-62
2022/01/31 10:35:02;;;;;;;38.47;5.93;;;;;;;5.88;79.55;100948.00;5016127;28;20034;-62
2022/01/31 10:37:31;;;;;;;37.47;5.05;;;;;;;5.90;80.23;100955.91;5015869;28;20034;-62
2022/01/31 10:46:33;;;;;;;31.95;5.22;;;;;;;5.98;78.33;100950.06;5016122;28;20048;-62
2022/01/31 10:53:41;;;;;;;36.85;5.22;;;;;;;5.93;78.25;100956.03;5016303;28;20037;-61
2022/01/31 10:56:07;;;;;;;28.98;5.10;;;;;;;5.93;78.64;100959.53;4998131;28;20399;-62
2022/01/31 10:58:32;;;;;;;33.15;5.28;;;;;;;5.91;78.93;100960.28;5015725;28;20026;-62
2022/01/31 11:01:16;;;;;;;32.85;4.72;;;;;;;5.93;77.91;100962.16;5015334;28;20025;-62
2022/01/31 11:03:41;;;;;;;38.08;5.93;;;;;;;5.92;78.09;100981.38;5015822;28;20030;-63
2022/01/31 11:06:09;;;;;;;30.65;4.88;;;;;;;5.91;77.91;100966.47;5015674;28;20088;-62
2022/01/31 11:08:34;;;;;;;25.20;4.80;;;;;;;5.92;78.90;100972.63;5015510;28;20030;-62
2022/01/31 11:11:00;;;;;;;30.13;5.15;;;;;;;5.95;78.68;100973.63;5016236;28;20029;-61
2022/01/31 11:13:26;;;;;;;29.63;5.55;;;;;;;5.96;78.32;100987.63;5016349;28;20454;-62
2022/01/31 11:15:54;;;;;;;31.13;4.90;;;;;;;5.97;78.63;100998.13;5015963;28;20033;-62
2022/01/31 11:18:22;;;;;;;27.23;4.65;;;;;;;5.95;78.61;100985.81;5015379;28;20026;-62
2022/01/31 11:20:49;;;;;;;43.28;5.50;;;;;;;5.94;79.70;100995.41;4997722;28;20030;-62
2022/01/31 11:23:17;;;;;;;28.95;4.93;;;;;;;5.86;79.85;101001.22;5015341;28;20048;-62
2022/01/31 11:25:47;;;;;;;21.45;4.32;;;;;;;5.84;80.50;100972.34;5015208;28;20490;-61
2022/01/31 11:28:13;;;;;;;28.75;4.75;;;;;;;5.74;80.21;101005.25;5041034;23;20050;-73
2022/01/31 11:30:41;;;;;;;18.80;4.28;;;;;;;5.75;80.97;101008.75;4977214;28;20030;-74
2022/01/31 11:33:07;;;;;;;27.63;4.63;;;;;;;5.77;81.14;101014.91;4994752;28;20084;-74
2022/01/31 11:35:33;;;;;;;32.55;5.80;;;;;;;5.69;80.94;100990.19;4994853;28;20034;-72
2022/01/31 11:37:58;;;;;;;30.35;6.50;;;;;;;5.76;80.98;101019.28;4994854;28;20042;-74
2022/01/31 11:40:24;;;;;;;27.63;4.72;;;;;;;5.79;81.71;101018.50;4994629;28;20079;-72
2022/01/31 11:42:51;;;;;;;38.78;5.72;;;;;;;5.82;80.90;101017.69;4994804;28;20041;-73
2022/01/31 11:45:25;;;;;;;39.22;5.53;;;;;;;5.75;81.71;101004.41;4994502;28;20034;-73